Pagrindinis puslapis
METAR-TAF:

METAR-TAF

Oro uostai :

Anvik, Aliaska, Jungtinės Amerikos Valstijos

platuma: 62-38-54N, ilguma: 160-11-23W, Aukštis: 94 m

Dabartinis oras

Ataskaita buvo paskelbta 59 minutes, ne 07:56 UTC
Vėjas 15 kt iš Šiaurės/Šiaurės Rytų su gūsio iki 20 kt
Temperatūra -15°C
Drėgmė 71%
Slėgis 1009 hPa
Matomumas: 16.1 km
Giedras dangus

METAR: PANV 260756Z AUTO 03015G20KT 10SM CLR M15/M19 A2981 RMK AO2 PK WND 02026/0731 SLP231 T11501189 FZRANO TSNO

Laikas: 23:55 (08:55 UTC)


TAF: trūkstamas

Orai ataskaitas ir orų prognozės (METAR, TAF).

turimą stotys yra geltonos ir raudonos taškus žemėlapyje.

Perkelti pele per norėdami pamatyti stoties vardą.

Tada spustelėkite, norėdami matyti oro stebėjimo ir prognozės.

Norėdami pakeisti žemėlapį: spustelėkite ant žalios mygtukų su juodo kryžiaus žemyn,; žalią mygtuką su brūkšneliu, jei norite nutolinti; arba žalių rodyklių gretimoms žemėlapius.


METAR-TAF: